Time;durP1;ratioP1;P1;durP2;ratioP2;P2;SDS_P1;SDS_P2;PMS_P1;PMS_P2;Temp;Humidity;BMP_temperature;BMP_pressure;BME280_temperature;BME280_humidity;BME280_pressure;Samples;Min_cycle;Max_cycle;Signal;HPM_P1;HPM_P2
2023/06/12 00:02:25;;;;;;;3.63;3.00;;;22.10;96.40;;;;;;7386014;19;20468;-75
2023/06/12 00:04:54;;;;;;;3.25;2.90;;;21.90;96.90;;;;;;7385687;19;20149;-74
2023/06/12 00:07:21;;;;;;;6.15;2.90;;;21.70;97.50;;;;;;7386079;19;20134;-75
2023/06/12 00:09:47;;;;;;;3.20;2.90;;;21.60;97.20;;;;;;7385741;19;20593;-75
2023/06/12 00:12:16;;;;;;;3.55;3.13;;;21.60;97.50;;;;;;7383974;19;20529;-75
2023/06/12 00:14:42;;;;;;;3.47;2.97;;;21.70;98.40;;;;;;7385925;19;20144;-75
2023/06/12 00:17:07;;;;;;;3.78;3.00;;;21.50;97.30;;;;;;7385652;19;20226;-74
2023/06/12 00:19:33;;;;;;;3.55;2.80;;;21.50;97.80;;;;;;7387356;19;20161;-75
2023/06/12 00:21:59;;;;;;;3.92;3.03;;;21.60;97.90;;;;;;7386367;19;20135;-75
2023/06/12 00:24:25;;;;;;;2.95;2.60;;;21.70;98.20;;;;;;7385782;19;20137;-75
2023/06/12 00:26:50;;;;;;;3.72;3.33;;;21.60;98.20;;;;;;7386168;19;20154;-75
2023/06/12 00:29:17;;;;;;;3.20;2.88;;;21.60;99.10;;;;;;7385741;19;20146;-74
2023/06/12 00:31:43;;;;;;;3.67;2.72;;;21.70;98.10;;;;;;7386455;19;20157;-75
2023/06/12 00:34:09;;;;;;;4.13;2.95;;;21.80;98.20;;;;;;7382044;19;20154;-75
2023/06/12 00:36:35;;;;;;;3.17;2.88;;;21.80;98.30;;;;;;7386455;19;20161;-74
2023/06/12 00:39:00;;;;;;;5.47;3.25;;;21.80;97.70;;;;;;7384617;19;20154;-75
2023/06/12 00:41:26;;;;;;;3.53;2.78;;;21.80;98.20;;;;;;7385128;19;20610;-75
2023/06/12 00:43:52;;;;;;;3.20;2.90;;;21.70;98.10;;;;;;7381871;19;20155;-75
2023/06/12 00:46:18;;;;;;;3.10;2.60;;;21.90;98.00;;;;;;7384963;19;20147;-75
2023/06/12 00:48:45;;;;;;;3.33;3.00;;;21.90;97.90;;;;;;7390295;19;20149;-74
2023/06/12 00:51:11;;;;;;;3.53;3.22;;;21.90;98.50;;;;;;7390600;19;20142;-75
2023/06/12 00:53:40;;;;;;;3.40;2.58;;;21.80;97.90;;;;;;7391021;19;20158;-75
2023/06/12 00:56:06;;;;;;;3.47;2.80;;;21.70;98.10;;;;;;7391722;19;20516;-75
2023/06/12 00:58:32;;;;;;;3.30;3.00;;;21.70;98.50;;;;;;7391338;19;20146;-76
2023/06/12 01:00:58;;;;;;;4.65;3.13;;;21.50;98.10;;;;;;7389776;19;20620;-75
2023/06/12 01:03:24;;;;;;;3.22;2.92;;;21.30;98.70;;;;;;7394313;19;20131;-75
2023/06/12 01:05:53;;;;;;;4.15;3.08;;;21.40;98.60;;;;;;7392887;19;20138;-75
2023/06/12 01:08:37;;;;;;;3.22;2.92;;;21.50;98.90;;;;;;7391491;19;20753;-75
2023/06/12 01:11:08;;;;;;;3.22;2.92;;;21.60;99.20;;;;;;7391872;19;20149;-75
2023/06/12 01:13:34;;;;;;;4.75;3.40;;;21.50;99.60;;;;;;7390023;19;20150;-74
2023/06/12 01:16:00;;;;;;;4.03;3.40;;;21.60;99.50;;;;;;7391495;19;20130;-75
2023/06/12 01:18:26;;;;;;;3.85;3.45;;;21.70;99.50;;;;;;7390927;19;20145;-74
2023/06/12 01:20:55;;;;;;;3.35;2.88;;;21.80;99.60;;;;;;7389998;19;21013;-75
2023/06/12 01:23:36;;;;;;;4.07;3.70;;;21.80;99.70;;;;;;7391951;19;20151;-74
2023/06/12 01:26:39;;;;;;;4.43;3.83;;;21.90;99.70;;;;;;7390451;19;20126;-76
2023/06/12 01:29:23;;;;;;;4.07;3.63;;;21.80;99.70;;;;;;7389083;19;20130;-74
2023/06/12 01:32:12;;;;;;;4.72;3.50;;;21.80;99.90;;;;;;7390544;19;20139;-75
2023/06/12 01:34:54;;;;;;;5.25;4.10;;;21.80;99.90;;;;;;7390961;19;20192;-75
2023/06/12 01:37:32;;;;;;;4.70;3.83;;;21.80;99.90;;;;;;7393689;19;20479;-75
2023/06/12 01:40:00;;;;;;;6.60;4.10;;;21.80;99.90;;;;;;7387931;19;20142;-74
2023/06/12 01:42:27;;;;;;;6.20;3.88;;;21.80;99.90;;;;;;7377493;19;20146;-74
2023/06/12 01:44:54;;;;;;;5.15;3.80;;;21.70;99.90;;;;;;7390215;19;20579;-74
2023/06/12 01:47:20;;;;;;;6.57;3.90;;;21.60;99.90;;;;;;7391650;19;20123;-75
2023/06/12 01:49:47;;;;;;;4.03;3.58;;;21.50;99.90;;;;;;7388962;19;20147;-74
2023/06/12 01:52:13;;;;;;;5.82;3.75;;;21.40;99.90;;;;;;7389016;19;20138;-75
2023/06/12 01:54:38;;;;;;;5.20;4.25;;;21.30;99.90;;;;;;7387788;19;20156;-75
2023/06/12 01:57:05;;;;;;;4.80;4.13;;;21.10;99.90;;;;;;7391993;19;20842;-76
2023/06/12 01:59:34;;;;;;;4.70;3.50;;;20.90;99.90;;;;;;7388524;19;20141;-76
2023/06/12 02:02:01;;;;;;;4.20;3.80;;;20.90;99.90;;;;;;7390990;19;20167;-75
2023/06/12 02:04:28;;;;;;;5.97;4.00;;;20.60;99.90;;;;;;7389544;19;20126;-74
2023/06/12 02:06:54;;;;;;;5.50;4.13;;;20.70;99.90;;;;;;7390329;19;20130;-75
2023/06/12 02:09:20;;;;;;;4.13;3.53;;;20.90;99.90;;;;;;7382597;19;20145;-76
2023/06/12 02:11:48;;;;;;;4.80;4.25;;;20.80;99.90;;;;;;7389073;19;20579;-75
2023/06/12 02:14:14;;;;;;;4.22;3.78;;;20.60;99.90;;;;;;7388661;19;20151;-75
2023/06/12 02:16:39;;;;;;;4.30;3.72;;;20.30;99.90;;;;;;7390373;19;20127;-76
2023/06/12 02:19:05;;;;;;;5.32;4.10;;;19.90;99.90;;;;;;7390581;19;20127;-75
2023/06/12 02:21:31;;;;;;;4.82;3.83;;;20.10;99.90;;;;;;7387147;19;20134;-75
2023/06/12 02:23:56;;;;;;;4.38;3.67;;;20.10;99.90;;;;;;7391208;19;20149;-75
2023/06/12 02:26:22;;;;;;;4.78;3.90;;;20.20;99.90;;;;;;7387875;19;20138;-76
2023/06/12 02:29:06;;;;;;;6.10;3.90;;;20.00;99.90;;;;;;7389940;19;20218;-74
2023/06/12 02:31:33;;;;;;;5.88;4.00;;;;;;;;;;7389802;19;20444;-76
2023/06/12 02:33:59;;;;;;;4.88;3.90;;;19.80;99.90;;;;;;7389024;19;20134;-75
2023/06/12 02:36:24;;;;;;;4.32;3.75;;;20.00;99.90;;;;;;7389391;19;20225;-76
2023/06/12 02:38:51;;;;;;;4.97;3.80;;;19.90;99.90;;;;;;7387770;19;20155;-75
2023/06/12 02:41:17;;;;;;;4.43;3.80;;;20.20;99.90;;;;;;7388239;19;20654;-75
2023/06/12 02:43:42;;;;;;;7.50;4.20;;;20.40;99.90;;;;;;7387972;19;20150;-76
2023/06/12 02:46:08;;;;;;;4.50;4.03;;;20.20;99.90;;;;;;7388540;19;20153;-76
2023/06/12 02:48:34;;;;;;;3.88;3.55;;;20.10;99.90;;;;;;7389450;19;20149;-74
2023/06/12 02:51:00;;;;;;;3.85;3.40;;;20.00;99.90;;;;;;7388060;19;20631;-74
2023/06/12 02:53:26;;;;;;;3.60;3.30;;;20.20;99.90;;;;;;7387775;19;20169;-75
2023/06/12 02:55:52;;;;;;;7.85;3.60;;;20.20;99.90;;;;;;7387025;19;20173;-75
2023/06/12 02:58:20;;;;;;;3.63;3.33;;;20.40;99.90;;;;;;7388319;19;20155;-76
2023/06/12 03:00:46;;;;;;;3.67;3.38;;;20.30;99.90;;;;;;7386869;19;20246;-75
2023/06/12 03:03:12;;;;;;;3.47;2.80;;;20.10;99.90;;;;;;7386587;19;20145;-75
2023/06/12 03:05:38;;;;;;;6.47;3.30;;;19.90;99.90;;;;;;7388031;19;20533;-75
2023/06/12 03:08:05;;;;;;;5.95;3.58;;;19.90;99.90;;;;;;7389001;19;20135;-75
2023/06/12 03:10:31;;;;;;;4.28;3.88;;;20.10;99.90;;;;;;7385784;19;20152;-75
2023/06/12 03:12:56;;;;;;;4.40;3.67;;;20.30;99.90;;;;;;7382951;19;20582;-76
2023/06/12 03:15:22;;;;;;;3.65;3.30;;;20.00;99.90;;;;;;7388018;19;20609;-76
2023/06/12 03:17:48;;;;;;;6.80;3.95;;;19.70;99.90;;;;;;7389681;19;20139;-76
2023/06/12 03:20:15;;;;;;;4.25;3.53;;;19.80;99.90;;;;;;7388341;19;20153;-75
2023/06/12 03:22:41;;;;;;;4.45;3.72;;;20.10;99.90;;;;;;7387883;19;20134;-74
2023/06/12 03:25:09;;;;;;;3.47;3.17;;;20.20;99.90;;;;;;7388364;19;20149;-75
2023/06/12 03:27:35;;;;;;;3.92;3.53;;;19.90;99.90;;;;;;7385859;19;20126;-75
2023/06/12 03:30:00;;;;;;;3.85;3.45;;;19.80;99.90;;;;;;7386964;19;20143;-74
2023/06/12 03:32:27;;;;;;;4.15;3.75;;;19.80;99.90;;;;;;7387556;19;20134;-75
2023/06/12 03:34:54;;;;;;;4.43;3.83;;;19.80;99.90;;;;;;7386841;19;20130;-77
2023/06/12 03:37:20;;;;;;;4.63;3.90;;;19.90;99.90;;;;;;7386163;19;20151;-76
2023/06/12 03:39:45;;;;;;;4.22;3.80;;;19.80;99.90;;;;;;7389291;19;20727;-75
2023/06/12 03:42:11;;;;;;;5.88;3.83;;;19.30;99.90;;;;;;7385192;19;20220;-75
2023/06/12 03:44:37;;;;;;;3.80;3.50;;;19.50;99.90;;;;;;7386877;19;20134;-76
2023/06/12 03:47:03;;;;;;;4.28;3.53;;;19.80;99.90;;;;;;7388684;19;20595;-74
2023/06/12 03:49:29;;;;;;;5.53;3.83;;;20.00;99.90;;;;;;7385703;19;20203;-75
2023/06/12 03:51:55;;;;;;;4.35;3.60;;;20.00;99.90;;;;;;7385982;19;20587;-75
2023/06/12 03:54:21;;;;;;;5.78;3.78;;;20.20;99.90;;;;;;7385060;19;20172;-74
2023/06/12 03:56:48;;;;;;;3.40;3.10;;;20.30;99.90;;;;;;7384218;19;20670;-74
2023/06/12 03:59:14;;;;;;;3.78;3.42;;;20.40;99.90;;;;;;7386178;19;20135;-74
2023/06/12 04:01:42;;;;;;;3.83;3.00;;;20.40;99.90;;;;;;7385690;19;20554;-75
2023/06/12 04:04:09;;;;;;;4.07;3.63;;;20.50;99.90;;;;;;7386339;19;20210;-75
2023/06/12 04:06:40;;;;;;;4.95;3.53;;;20.50;99.90;;;;;;7385672;19;20946;-74
2023/06/12 04:09:12;;;;;;;3.75;3.38;;;20.50;99.90;;;;;;7387730;19;20138;-74
2023/06/12 04:11:41;;;;;;;6.18;3.83;;;20.50;99.90;;;;;;7385647;19;20749;-74
2023/06/12 04:14:07;;;;;;;4.25;3.70;;;20.50;99.90;;;;;;7385192;19;20151;-75
2023/06/12 04:16:34;;;;;;;4.63;3.70;;;20.40;99.90;;;;;;7387927;19;20138;-75
2023/06/12 04:19:03;;;;;;;4.88;3.42;;;20.40;99.90;;;;;;7388018;19;20131;-75
2023/06/12 04:21:32;;;;;;;3.60;3.30;;;20.30;99.90;;;;;;7386807;19;20143;-75
2023/06/12 04:24:03;;;;;;;4.53;3.90;;;20.10;99.90;;;;;;7392830;19;20137;-73
2023/06/12 04:26:34;;;;;;;7.00;4.20;;;20.00;99.90;;;;;;7393846;19;20139;-74
2023/06/12 04:29:04;;;;;;;4.00;3.58;;;19.90;99.90;;;;;;7393974;19;20134;-74
2023/06/12 04:31:30;;;;;;;3.95;3.55;;;20.10;99.90;;;;;;7392557;19;20206;-74
2023/06/12 04:33:56;;;;;;;5.57;3.30;;;20.00;99.90;;;;;;7392298;19;20135;-75
2023/06/12 04:36:22;;;;;;;5.05;3.53;;;20.10;99.90;;;;;;7394887;19;20145;-75
2023/06/12 04:38:52;;;;;;;6.20;3.40;;;20.00;99.90;;;;;;7395013;19;20150;-74
2023/06/12 04:41:19;;;;;;;4.53;3.53;;;20.20;99.90;;;;;;7395819;19;20150;-74
2023/06/12 04:43:49;;;;;;;5.50;3.65;;;20.30;99.90;;;;;;7391954;19;20146;-73
2023/06/12 04:46:18;;;;;;;3.85;3.47;;;20.30;99.90;;;;;;7393109;19;20130;-74
2023/06/12 04:48:45;;;;;;;4.03;3.28;;;20.30;99.90;;;;;;7393498;19;20442;-75
2023/06/12 04:51:11;;;;;;;7.50;4.15;;;20.50;99.90;;;;;;7393775;19;20149;-74
2023/06/12 04:53:39;;;;;;;5.57;4.72;;;20.60;99.90;;;;;;7395505;19;20490;-74
2023/06/12 04:56:09;;;;;;;6.82;4.30;;;20.60;99.90;;;;;;7396245;19;20147;-74
2023/06/12 04:58:39;;;;;;;5.13;3.80;;;20.70;99.90;;;;;;7396385;19;20600;-74
2023/06/12 05:01:17;;;;;;;4.80;3.97;;;20.70;99.90;;;;;;7405101;19;20150;-75
2023/06/12 05:03:43;;;;;;;5.88;4.35;;;20.80;99.90;;;;;;7392496;19;20150;-75
2023/06/12 05:06:09;;;;;;;4.28;3.85;;;20.60;99.90;;;;;;7393413;19;20157;-74
2023/06/12 05:08:36;;;;;;;4.15;3.75;;;20.60;99.90;;;;;;7393423;19;20131;-75
2023/06/12 05:11:03;;;;;;;7.20;4.70;;;20.60;99.90;;;;;;7395063;19;20140;-74
2023/06/12 05:13:29;;;;;;;5.53;4.40;;;20.60;99.90;;;;;;7393729;19;20147;-74
2023/06/12 05:15:55;;;;;;;4.75;4.15;;;20.50;99.90;;;;;;7397086;19;20138;-74
2023/06/12 05:18:21;;;;;;;4.70;4.05;;;20.50;99.90;;;;;;7397608;19;20634;-75
2023/06/12 05:20:46;;;;;;;5.25;3.95;;;20.50;99.90;;;;;;7395606;19;20165;-75
2023/06/12 05:23:12;;;;;;;5.00;3.83;;;20.60;99.90;;;;;;7398501;19;20141;-76
2023/06/12 05:25:38;;;;;;;4.70;4.20;;;20.60;99.90;;;;;;7399242;19;20143;-74
2023/06/12 05:28:04;;;;;;;6.50;3.88;;;20.70;99.90;;;;;;7398156;19;20133;-73
2023/06/12 05:30:30;;;;;;;4.53;4.03;;;20.70;99.90;;;;;;7394824;19;20134;-75
2023/06/12 05:32:56;;;;;;;5.32;3.42;;;20.70;99.90;;;;;;7388949;19;20137;-76
2023/06/12 05:35:22;;;;;;;3.38;3.08;;;20.70;99.90;;;;;;7392384;19;20134;-78
2023/06/12 05:37:48;;;;;;;6.00;3.88;;;20.80;99.90;;;;;;7388622;19;20186;-79
2023/06/12 05:40:14;;;;;;;5.30;3.35;;;20.70;99.90;;;;;;7391910;19;20180;-78
2023/06/12 05:42:40;;;;;;;6.40;3.83;;;20.70;99.90;;;;;;7389640;19;20154;-77
2023/06/12 05:45:06;;;;;;;5.10;3.92;;;20.60;99.90;;;;;;7390813;19;20131;-77
2023/06/12 05:47:35;;;;;;;5.00;3.33;;;20.60;99.90;;;;;;7387389;19;20138;-77
2023/06/12 05:50:01;;;;;;;4.00;3.60;;;20.60;99.90;;;;;;7388640;19;20135;-77
2023/06/12 05:52:28;;;;;;;5.45;3.60;;;20.80;99.90;;;;;;7387962;19;20142;-76
2023/06/12 05:54:54;;;;;;;4.32;3.90;;;20.90;99.90;;;;;;7388888;19;20161;-75
2023/06/12 05:57:20;;;;;;;4.20;3.80;;;21.00;99.90;;;;;;7388910;19;20132;-77
2023/06/12 05:59:47;;;;;;;4.57;4.10;;;21.00;99.90;;;;;;7388954;19;20238;-77
2023/06/12 06:02:14;;;;;;;3.78;3.33;;;21.00;99.90;;;;;;7386002;19;20628;-76
2023/06/12 06:04:40;;;;;;;4.85;4.10;;;21.10;99.90;;;;;;7390768;19;20126;-76
2023/06/12 06:07:07;;;;;;;4.80;3.67;;;21.00;99.90;;;;;;7390430;19;20134;-78
2023/06/12 06:09:34;;;;;;;4.35;3.95;;;21.10;99.90;;;;;;7387741;19;20146;-75
2023/06/12 06:11:59;;;;;;;4.32;3.92;;;21.60;99.90;;;;;;7388416;19;20206;-75
2023/06/12 06:14:25;;;;;;;4.72;3.80;;;23.20;99.90;;;;;;7385388;19;20174;-77
2023/06/12 06:16:51;;;;;;;5.05;3.80;;;24.80;99.90;;;;;;7388095;19;20479;-77
2023/06/12 06:19:16;;;;;;;4.28;3.70;;;25.80;99.90;;;;;;7387642;19;20529;-78
2023/06/12 06:21:42;;;;;;;6.80;4.10;;;26.30;99.90;;;;;;7388149;19;20127;-76
2023/06/12 06:24:10;;;;;;;4.68;3.53;;;27.10;97.70;;;;;;7389321;19;20151;-77
2023/06/12 06:26:35;;;;;;;3.90;3.60;;;27.90;96.80;;;;;;7388007;19;20131;-77
2023/06/12 06:29:01;;;;;;;12.73;3.65;;;28.50;95.70;;;;;;7387127;19;20138;-77
2023/06/12 06:31:27;;;;;;;5.47;3.90;;;29.40;93.60;;;;;;7388456;19;20130;-75
2023/06/12 06:33:53;;;;;;;4.32;3.75;;;29.90;92.60;;;;;;7386676;19;20130;-76
2023/06/12 06:36:20;;;;;;;5.65;3.88;;;30.30;91.40;;;;;;7379865;19;20146;-74
2023/06/12 06:38:45;;;;;;;5.38;3.53;;;30.40;90.90;;;;;;7386997;19;20127;-74
2023/06/12 06:41:11;;;;;;;4.35;3.30;;;30.40;90.30;;;;;;7383874;19;20145;-75
2023/06/12 06:43:37;;;;;;;5.05;3.60;;;30.60;89.90;;;;;;7384080;19;20173;-75
2023/06/12 06:46:02;;;;;;;4.43;3.80;;;31.40;88.00;;;;;;7384482;19;20507;-75
2023/06/12 06:48:28;;;;;;;5.03;3.83;;;31.70;86.60;;;;;;7386849;19;20142;-76
2023/06/12 06:50:54;;;;;;;7.33;4.13;;;32.80;83.40;;;;;;7383919;19;20499;-76
2023/06/12 06:53:20;;;;;;;4.32;3.85;;;33.30;81.00;;;;;;7387053;19;20225;-75
2023/06/12 06:55:46;;;;;;;3.90;3.58;;;33.30;79.80;;;;;;7386715;19;20149;-76
2023/06/12 06:58:12;;;;;;;5.82;4.07;;;31.90;80.80;;;;;;7386363;19;20135;-76
2023/06/12 07:00:37;;;;;;;3.67;3.38;;;31.30;82.80;;;;;;7386642;19;20159;-75
2023/06/12 07:03:03;;;;;;;4.90;3.30;;;30.90;82.80;;;;;;7386614;19;20622;-75
2023/06/12 07:05:29;;;;;;;5.43;3.55;;;30.70;84.10;;;;;;7385577;19;20135;-75
2023/06/12 07:07:55;;;;;;;4.38;3.38;;;31.00;82.60;;;;;;7384869;19;20151;-77
2023/06/12 07:10:20;;;;;;;5.00;3.53;;;31.30;82.00;;;;;;7379392;19;20130;-76
2023/06/12 07:12:46;;;;;;;5.95;3.88;;;30.90;82.30;;;;;;7387179;19;20130;-75
2023/06/12 07:15:12;;;;;;;4.35;3.25;;;30.50;84.50;;;;;;7386309;19;20131;-77
2023/06/12 07:17:38;;;;;;;4.30;3.58;;;31.00;82.40;;;;;;7386984;19;20596;-77
2023/06/12 07:20:08;;;;;;;3.80;3.50;;;30.90;82.60;;;;;;7385318;19;20173;-76
2023/06/12 07:22:34;;;;;;;5.45;4.15;;;30.70;81.80;;;;;;7387204;19;20254;-77
2023/06/12 07:25:00;;;;;;;4.45;3.70;;;30.80;81.20;;;;;;7385078;19;20162;-76
2023/06/12 07:27:26;;;;;;;4.45;3.72;;;30.80;81.20;;;;;;7383627;19;20446;-76
2023/06/12 07:29:55;;;;;;;4.95;4.20;;;30.90;80.90;;;;;;7386004;19;20141;-78
2023/06/12 07:32:21;;;;;;;3.60;3.30;;;30.70;81.00;;;;;;7383075;19;20154;-76
2023/06/12 07:34:47;;;;;;;4.25;3.60;;;30.80;81.10;;;;;;7385083;19;20526;-76
2023/06/12 07:37:14;;;;;;;4.35;3.55;;;30.50;81.20;;;;;;7385410;19;20145;-75
2023/06/12 07:39:39;;;;;;;3.45;3.08;;;30.50;81.60;;;;;;7382874;19;20218;-74
2023/06/12 07:42:08;;;;;;;7.22;4.85;;;30.60;81.90;;;;;;7382361;19;20159;-77
2023/06/12 07:44:34;;;;;;;4.38;3.78;;;30.70;81.20;;;;;;7385360;19;20159;-75
2023/06/12 07:47:00;;;;;;;4.07;3.58;;;30.50;80.90;;;;;;7386251;19;20131;-76
2023/06/12 07:49:26;;;;;;;4.65;3.70;;;30.00;80.90;;;;;;7383936;19;20202;-75
2023/06/12 07:51:53;;;;;;;5.07;3.75;;;29.60;80.90;;;;;;7384161;19;20131;-77
2023/06/12 07:54:18;;;;;;;10.93;9.35;;;29.40;80.60;;;;;;7381577;19;20153;-76
2023/06/12 07:56:47;;;;;;;7.80;5.40;;;29.10;81.80;;;;;;7383929;19;20608;-76
2023/06/12 07:59:14;;;;;;;5.18;4.50;;;29.10;81.70;;;;;;7385837;19;20509;-77
2023/06/12 08:01:40;;;;;;;4.03;3.63;;;29.40;81.20;;;;;;7386993;19;20135;-75
2023/06/12 08:04:12;;;;;;;3.97;3.58;;;29.80;80.60;;;;;;7374742;19;20894;-77
2023/06/12 08:06:42;;;;;;;4.22;3.83;;;29.80;80.90;;;;;;7387617;19;20154;-76
2023/06/12 08:09:11;;;;;;;3.67;3.38;;;29.80;80.70;;;;;;7386720;19;20149;-76
2023/06/12 08:11:36;;;;;;;4.35;3.67;;;29.70;81.80;;;;;;7382971;19;20527;-76
2023/06/12 08:14:03;;;;;;;5.25;4.00;;;29.70;81.40;;;;;;7384956;19;20137;-76
2023/06/12 08:17:05;;;;;;;4.50;3.67;;;29.50;83.40;;;;;;7385953;19;20146;-79
2023/06/12 08:19:41;;;;;;;4.70;3.20;;;29.30;84.50;;;;;;7380838;19;20150;-77
2023/06/12 08:22:08;;;;;;;4.15;3.67;;;29.70;82.40;;;;;;7385984;19;20157;-76
2023/06/12 08:24:35;;;;;;;3.60;3.30;;;29.70;79.90;;;;;;7383148;19;20142;-76
2023/06/12 08:27:02;;;;;;;6.22;4.32;;;29.60;79.30;;;;;;7385059;19;20821;-78
2023/06/12 08:29:28;;;;;;;4.07;3.60;;;29.30;80.30;;;;;;7383077;19;20666;-76
2023/06/12 08:31:55;;;;;;;4.97;3.10;;;29.20;80.60;;;;;;7383394;19;20164;-76
2023/06/12 08:34:25;;;;;;;4.93;4.35;;;29.10;81.20;;;;;;7381336;19;20145;-76
2023/06/12 08:36:55;;;;;;;5.97;5.05;;;29.20;81.70;;;;;;7384552;19;20151;-76
2023/06/12 08:39:21;;;;;;;4.82;4.07;;;29.50;82.00;;;;;;7383927;19;20219;-76
2023/06/12 08:41:59;;;;;;;4.65;3.28;;;29.30;79.50;;;;;;7383169;19;20147;-76
2023/06/12 08:44:25;;;;;;;3.63;3.33;;;28.60;78.40;;;;;;7383567;19;20597;-76
2023/06/12 08:46:56;;;;;;;7.35;3.60;;;28.40;77.30;;;;;;7386821;19;20837;-78
2023/06/12 08:49:22;;;;;;;4.28;3.45;;;28.10;78.60;;;;;;7385141;19;20153;-77
2023/06/12 08:51:49;;;;;;;3.53;3.03;;;27.90;78.20;;;;;;7384554;19;20143;-76
2023/06/12 08:54:15;;;;;;;4.63;4.00;;;27.80;78.00;;;;;;7384521;19;20152;-77
2023/06/12 08:56:42;;;;;;;4.22;3.42;;;28.00;77.40;;;;;;7383771;19;20139;-76
2023/06/12 08:59:10;;;;;;;4.20;3.53;;;28.10;78.10;;;;;;7383780;19;20118;-76
2023/06/12 09:01:37;;;;;;;4.05;3.65;;;28.20;78.40;;;;;;7383194;19;20170;-76
2023/06/12 09:04:08;;;;;;;3.85;3.50;;;28.10;78.20;;;;;;7381899;19;20622;-77
2023/06/12 09:06:37;;;;;;;3.42;3.13;;;28.00;79.00;;;;;;7383284;19;20150;-76
2023/06/12 09:09:04;;;;;;;4.50;3.70;;;27.60;80.80;;;;;;7385262;19;20152;-77
2023/06/12 09:11:30;;;;;;;4.03;3.63;;;27.60;81.80;;;;;;7389525;19;20182;-76
2023/06/12 09:14:01;;;;;;;4.97;4.28;;;27.40;79.80;;;;;;7386108;19;20146;-77
2023/06/12 09:16:27;;;;;;;3.67;3.28;;;27.40;80.90;;;;;;7389166;19;20150;-77
2023/06/12 09:18:55;;;;;;;4.45;4.05;;;27.50;80.00;;;;;;7389346;19;20138;-76
2023/06/12 09:21:21;;;;;;;5.93;4.22;;;27.50;78.80;;;;;;7387337;19;20150;-77
2023/06/12 09:23:55;;;;;;;5.25;3.53;;;27.70;77.70;;;;;;7391717;19;20143;-77
2023/06/12 09:26:24;;;;;;;3.40;3.10;;;28.10;77.60;;;;;;7389158;19;20137;-78
2023/06/12 09:28:51;;;;;;;3.47;3.17;;;28.10;78.40;;;;;;7389148;19;20163;-78
2023/06/12 09:31:16;;;;;;;4.72;3.38;;;28.30;76.50;;;;;;7384889;19;20162;-77
2023/06/12 09:33:44;;;;;;;3.88;3.47;;;28.20;76.10;;;;;;7388261;19;20610;-76
2023/06/12 09:36:12;;;;;;;12.30;7.18;;;28.00;74.70;;;;;;7390545;19;20210;-77
2023/06/12 09:38:41;;;;;;;4.32;3.70;;;27.70;75.40;;;;;;7388740;19;20141;-77
2023/06/12 09:41:08;;;;;;;4.47;4.07;;;27.50;75.70;;;;;;7388058;19;20150;-76
2023/06/12 09:43:35;;;;;;;7.78;5.55;;;27.60;75.20;;;;;;7386569;19;20158;-77
2023/06/12 09:46:03;;;;;;;8.80;7.03;;;27.80;75.60;;;;;;7388166;19;20190;-76
2023/06/12 09:48:40;;;;;;;3.30;3.00;;;27.80;74.90;;;;;;7388407;19;20126;-78
2023/06/12 09:51:09;;;;;;;4.20;3.17;;;27.50;75.90;;;;;;7390037;19;20856;-77
2023/06/12 09:53:38;;;;;;;4.57;3.22;;;27.50;75.80;;;;;;7388067;19;20150;-76
2023/06/12 09:56:05;;;;;;;3.42;3.13;;;27.50;76.50;;;;;;7388327;19;20213;-78
2023/06/12 09:58:36;;;;;;;3.92;3.35;;;27.60;75.60;;;;;;7388227;19;20161;-76
2023/06/12 10:01:05;;;;;;;4.50;2.55;;;27.70;75.00;;;;;;7388338;19;20607;-75
2023/06/12 10:03:39;;;;;;;4.40;4.00;;;27.60;76.30;;;;;;7387937;19;20138;-77
2023/06/12 10:06:06;;;;;;;4.78;3.92;;;27.70;77.20;;;;;;7390196;19;20133;-77
2023/06/12 10:08:35;;;;;;;6.28;4.25;;;27.80;76.40;;;;;;7388682;19;20575;-77
2023/06/12 10:11:03;;;;;;;3.55;3.22;;;27.70;75.40;;;;;;7386465;19;20134;-77
2023/06/12 10:13:30;;;;;;;3.72;3.40;;;27.70;75.70;;;;;;7386787;19;20150;-76
2023/06/12 10:15:57;;;;;;;6.38;3.63;;;27.60;75.10;;;;;;7388915;19;20139;-77
2023/06/12 10:18:24;;;;;;;4.75;3.80;;;27.50;75.70;;;;;;7389418;19;20137;-78
2023/06/12 10:20:52;;;;;;;4.57;4.00;;;27.50;75.30;;;;;;7386652;19;20155;-75
2023/06/12 10:23:19;;;;;;;5.07;3.40;;;27.50;75.10;;;;;;7389546;19;20146;-77
2023/06/12 10:25:46;;;;;;;5.75;3.65;;;27.10;75.10;;;;;;7386855;19;20519;-76
2023/06/12 10:28:12;;;;;;;3.88;3.00;;;27.00;75.80;;;;;;7387153;19;20150;-80
2023/06/12 10:30:38;;;;;;;4.18;3.42;;;27.00;75.30;;;;;;7385262;19;20142;-77
2023/06/12 10:33:13;;;;;;;4.20;3.80;;;27.30;75.70;;;;;;7386700;19;20134;-78
2023/06/12 10:35:39;;;;;;;4.05;3.65;;;27.60;75.60;;;;;;7385040;19;20130;-77
2023/06/12 10:38:11;;;;;;;3.40;3.10;;;27.80;73.40;;;;;;7385914;19;20142;-77
2023/06/12 10:40:49;;;;;;;4.55;3.58;;;27.80;73.60;;;;;;7384967;19;20130;-79
2023/06/12 10:43:20;;;;;;;4.72;4.22;;;27.70;74.20;;;;;;7384712;19;20249;-75
2023/06/12 10:45:56;;;;;;;4.60;3.80;;;27.70;74.40;;;;;;7387021;19;20157;-75
2023/06/12 10:48:23;;;;;;;3.83;3.53;;;27.40;74.60;;;;;;7388131;19;20610;-75
2023/06/12 10:50:52;;;;;;;3.78;3.40;;;27.30;74.70;;;;;;7383948;19;20169;-75
2023/06/12 10:53:29;;;;;;;4.95;3.38;;;27.40;73.90;;;;;;7382891;19;20259;-74
2023/06/12 10:56:06;;;;;;;3.92;3.53;;;27.50;74.40;;;;;;7386631;19;20167;-75
2023/06/12 10:58:44;;;;;;;4.78;2.90;;;27.50;73.50;;;;;;7389277;19;20138;-75
2023/06/12 11:01:13;;;;;;;4.28;3.28;;;27.60;73.30;;;;;;7384560;19;20157;-75
2023/06/12 11:03:42;;;;;;;3.28;2.90;;;27.50;72.70;;;;;;7385872;19;20181;-75
2023/06/12 11:06:16;;;;;;;8.50;7.63;;;27.40;74.30;;;;;;7390351;19;20154;-74
2023/06/12 11:08:46;;;;;;;5.05;3.10;;;27.50;74.50;;;;;;7387809;19;20138;-75
2023/06/12 11:11:14;;;;;;;4.25;3.80;;;27.50;74.00;;;;;;7386613;19;20134;-74
2023/06/12 11:13:44;;;;;;;4.63;4.20;;;27.50;74.00;;;;;;7385321;19;20265;-75
2023/06/12 11:16:19;;;;;;;4.60;3.60;;;27.40;74.40;;;;;;7389011;19;20647;-75
2023/06/12 11:18:45;;;;;;;3.67;3.30;;;27.40;74.90;;;;;;7385773;19;20145;-75
2023/06/12 11:21:11;;;;;;;3.58;3.22;;;27.40;74.30;;;;;;7381441;19;20133;-77
2023/06/12 11:23:40;;;;;;;5.13;3.53;;;27.40;73.80;;;;;;7387692;19;20630;-76
2023/06/12 11:26:07;;;;;;;7.32;6.00;;;27.40;75.20;;;;;;7388531;19;20470;-76
2023/06/12 11:28:33;;;;;;;3.42;2.90;;;27.60;73.10;;;;;;7387289;19;20150;-78
2023/06/12 11:31:01;;;;;;;4.18;2.95;;;27.60;73.30;;;;;;7387498;19;20131;-77
2023/06/12 11:33:27;;;;;;;3.85;3.50;;;27.60;72.30;;;;;;7383408;19;20161;-77
2023/06/12 11:35:59;;;;;;;3.20;2.90;;;27.50;73.50;;;;;;7386431;19;20157;-77
2023/06/12 11:38:25;;;;;;;5.47;3.53;;;27.50;73.80;;;;;;7386321;19;20140;-76
2023/06/12 11:40:51;;;;;;;4.05;3.30;;;27.60;72.10;;;;;;7385720;19;20138;-77
2023/06/12 11:43:18;;;;;;;3.67;3.13;;;27.70;70.40;;;;;;7386266;19;20242;-76
2023/06/12 11:45:44;;;;;;;6.13;4.20;;;27.80;69.60;;;;;;7387420;19;20622;-76
2023/06/12 11:48:16;;;;;;;3.95;3.40;;;27.80;68.70;;;;;;7386935;19;20603;-76
2023/06/12 11:50:44;;;;;;;4.93;4.07;;;27.70;69.10;;;;;;7385986;19;20142;-75
2023/06/12 11:53:11;;;;;;;5.20;3.10;;;27.60;70.10;;;;;;7385738;19;20119;-77
2023/06/12 11:55:37;;;;;;;7.05;3.20;;;27.70;68.80;;;;;;7382979;19;20158;-76
2023/06/12 11:58:06;;;;;;;4.43;3.60;;;27.70;70.00;;;;;;7383263;19;20920;-77
2023/06/12 12:00:39;;;;;;;3.30;3.10;;;27.80;69.70;;;;;;7382502;19;20233;-76
2023/06/12 12:03:09;;;;;;;3.40;3.10;;;27.80;69.40;;;;;;7387049;19;20134;-78
2023/06/12 12:05:37;;;;;;;3.95;3.15;;;27.90;69.50;;;;;;7384931;19;20150;-77
2023/06/12 12:08:05;;;;;;;4.80;3.10;;;27.60;69.20;;;;;;7387439;19;20149;-79
2023/06/12 12:10:33;;;;;;;4.50;2.92;;;27.60;69.80;;;;;;7386636;19;20127;-79
2023/06/12 12:13:03;;;;;;;3.63;3.28;;;27.70;69.80;;;;;;7385416;19;20142;-78
2023/06/12 12:15:39;;;;;;;3.83;3.40;;;27.70;70.00;;;;;;7382662;19;20138;-80
2023/06/12 12:18:13;;;;;;;3.30;3.00;;;27.80;69.10;;;;;;7389350;19;20965;-79
2023/06/12 12:20:40;;;;;;;4.18;3.72;;;27.90;69.00;;;;;;7386367;19;20127;-79
2023/06/12 12:23:12;;;;;;;3.80;3.05;;;27.90;68.80;;;;;;7385642;19;20158;-79
2023/06/12 12:25:40;;;;;;;3.35;3.00;;;28.00;67.20;;;;;;7385194;19;21187;-78
2023/06/12 12:28:07;;;;;;;4.90;3.60;;;27.90;68.70;;;;;;7388350;19;20127;-78
2023/06/12 12:30:33;;;;;;;4.63;3.08;;;28.00;67.80;;;;;;7381311;19;20139;-77
2023/06/12 12:32:59;;;;;;;4.30;3.00;;;28.00;69.30;;;;;;7384119;19;20481;-76
2023/06/12 12:35:26;;;;;;;3.35;2.88;;;28.10;68.00;;;;;;7382682;19;20142;-76
2023/06/12 12:37:54;;;;;;;3.42;2.85;;;27.90;68.90;;;;;;7386510;19;20135;-76
2023/06/12 12:40:23;;;;;;;8.38;6.20;;;28.10;68.20;;;;;;7385647;19;20134;-76
2023/06/12 12:42:50;;;;;;;4.50;3.55;;;28.10;68.50;;;;;;7386884;19;20181;-78
2023/06/12 12:45:17;;;;;;;4.90;3.35;;;28.10;68.80;;;;;;7391829;19;20135;-78
2023/06/12 12:47:51;;;;;;;3.70;3.40;;;28.30;67.90;;;;;;7390687;19;20153;-77
2023/06/12 12:50:18;;;;;;;3.55;3.25;;;28.40;67.40;;;;;;7390074;19;20631;-80
2023/06/12 12:52:44;;;;;;;4.30;3.40;;;28.10;67.70;;;;;;7391277;19;20175;-77